CheckWX is a tool to help pilots better visualize weather data.  It is not intended as a substitute for an official pre-flight weather briefing.

00:19:12 UTC

KDCA TAF
Ronald Reagan Washington National Airport
Washington, Virginia, USA
KDCA 222336Z 2300/2406 32007KT P6SM SCT010 BKN060 FM230500 30006KT P6SM SCT150 FM231600 29011G17KT P6SM SKC FM240100 VRB03KT P6SM SKC

Oct-23@
00:00 UTC

Oct-23 @ 00:00 UTC

Oct-23@
05:00 UTC

Oct-23 @ 05:00 UTC

KDCA 222336Z 2300/2406 32007KT P6SM SCT010 BKN060
Wind
  • 320° at 7 KTS
Cloud Levels
  • Scattered at 1,000' AGL
  • Broken at 6,000' AGL

Oct-23@
05:00 UTC

Oct-23 @ 05:00 UTC

Oct-23@
16:00 UTC

Oct-23 @ 16:00 UTC

FM230500 30006KT P6SM SCT150

From

From Standard forecast or significant change

Wind
  • 300° at 6 KTS
Cloud Levels
  • Scattered at 15,000' AGL

Oct-23@
16:00 UTC

Oct-23 @ 16:00 UTC

Oct-24@
01:00 UTC

Oct-24 @ 01:00 UTC

FM231600 29011G17KT P6SM SKC

From

From Standard forecast or significant change

Wind
  • 290° at 11 KTS
  • {Gusting to 17 KTS
Cloud Levels
  • Clear skies

Oct-24@
01:00 UTC

Oct-24 @ 01:00 UTC

Oct-24@
06:00 UTC

Oct-24 @ 06:00 UTC

FM240100 VRB03KT P6SM SKC

From

From Standard forecast or significant change

Wind
  • Variable at 3 KTS
Cloud Levels
  • Clear skies